空の公差-Tolerance-

航空写真家 瀬尾 央(せお ひろし)氏による月刊「航空ファン」の連載記事、『 Light & Flight 』に中学生の頃出会い、触発され、写真撮影とプロペラ単発機での飛行を趣味として、空の写真、空からの写真を撮り続けています。 2004年には自費出版の写真集「空の公差-Tolerance-」(エアワークス刊,ISBN9784902113037)を作りました。

2015年04月

ボナンザで庄内

大利根 LCL   1140-1220(0+40)  C172
大利根 → RJSY  1315-1435(1+20)   BE36
RJSY → 大利根  1540-1655(1+15)   BE36

Mさんのボナンザに乗せていただき庄内往復してきました。
その前にせっかくなので大利根で久々にC172に乗って
みました。T/Gを4回したらこんなにフワフワしていたっけ?
と5回の着陸すべてで軽いバウンドをしてしまいショック。
改めてもう少し練習しようかな… 

その後Mさんの機体で庄内に行きました。
オートパイロット役(!?)です。といいつつ楽しめました。
経路は大利根-那須-庄内で往路9,500ftで向かい風約20KT
復路は8,500ftで追い風約20KTでした。

Mさんありがとうございます!
またのお誘いお待ちしております。

20150426DSCN2078JA4065SM
大利根でセスナに乗るのは1年半ぶりくらい?

20150426P4264933JA4065操縦席SM
セスナ172の操縦席。この機体を飛ばすのは初めてです

20150426P4264940JA3752SM
庄内平野に入ればあと少し

20150426DSC_3011鳥海山SM
庄内着陸前に見えた鳥海山

20150426DSC_3014JA3752庄内SM
庄内も山形と同じで「おいしい」という名称がついています

YS-11A-200 N462AL(JA8709)

品川で仕事でした。

仕事を終え明るいうちに間に合うかも!と天空橋へ行って
きました。土砂降り、風も強くスーツがびしょびしょになりつ
つ駐機場に引き出されているYS-11の写真が撮れました。

ライブビューにしたD5200を背伸びして持ち上げなんとか
有刺鉄線が機体にかからない状態で撮影できました。

この塗装も自家用機らしくて楽しいですが片面だけでいい
ので航空局のオリジナル塗装にならないでしょうか。

20150420DSC_3008エアロラボYS-11SM
2006年にほぼ同じ位置で撮りましたね…もう9年前です

20150420DSC_3002B737-BBJSM
遠くて登録番号がわからないB737(BBJ?) 

RJTT 20821Z 18027G37KT 2200 -SHRA BR FEW003
BKN005 BKN006 19/18 Q1003 RMK 1ST003 5ST005
7ST006 A2963=

RJTT 200838Z 18028G38KT 1800 SHRA BR FEW003
BKN004 BKN005 19/18 Q1003 RMK 1ST003 5ST004
7ST005 A2963=

大利根のち明野

大利根 LCL  1520-1540  (0+20)  G109B

空撮させていただいたMさんとHさんに本を渡しに大利根に
行きました。久々に大利根のセスナで飛ぼうと思ったら雨
が降り始め、機体カバーを取ってまで飛ぶことはあきらめま
した。そのかわり雨を縫ってMさんにG109Bに乗せてもらい
ました。Mさんありがとうございます。

そしてYさんからメールが・・・。
夜を徹して関東と福井往復して午後8時頃明野につくので
主翼を格納庫に搬入するのを手伝ってほしい、ということで
急きょ明野に行って手伝ってきました。

大人3人でなんとか無事に主翼を格納庫に入れることがで
きました。おつかれさまでした。

20150419P4194928大利根グローブSM
パターンを2周。ダウンウインドで雨に降られます

20150419DSC_2978明野トラックSM
午後8時トラックが到着

20150419DSC_2980明野搬入SM
無事に主翼(画面左端ほか)を搬入できました 

METAR RJAA 190330Z 17005KT 9999 -RA FEW030 BKN100
16/09 Q1016 NOSIG RMK 1CU030 7AC100 A3002= 

通り雨のち虹

午後から少しずつ雲行きが怪しくなってきました。
こういうときは虹が期待できます。
そして期待通りに濃い虹が見られました。 
職場の同じ部署の人にも知らせて屋上でしばし空観察が
できました。


20150415DSCN2070虹SM
手が届きそうなところから虹が生えています

20150415DSCN2074虹SM
画面上の雲は迫力満点

2つのチヌーク

金曜に思い立ち、土日で伊豆下田の温泉へ行ってきました。
オフシーズンの温泉でストレス解消ができました。

20150411DSCN2029BBSM
途中で見つけたベアード・ブルワリーに寄り道

20150411DSCN2058BBSM
飛び入りで工場見学もしました

20150411チヌークホップDSCN2035SM
チヌークという苦味のあるホップだそうです

20150412富士チヌークパラシュートDSC_2959SM
東富士演習場のパラシュート。母機はチヌーク

ボナンザで仙台

RJTF  → 龍ヶ崎  1100-1137 (0+37)   BE36
龍ヶ崎 → RJSF  1210-1250(0+40)   BE36
RJSF → RJSC  1320-1414(0+54)   BE36
RJSC → RJSS  1430-1501(0+31)   BE36

予定されていた横田カンファレンスが延期になったのと
3月はフライトできなかったので1か月半ぶりにボナンザ
でフライトしました。耐空検査のフェリーです。
みんな3月は飛べてなかったので4人で寄り道しながら
行くことになりました。

僕は福島から山形を担当しました。山形へ行くのは久々
です。途中で最近気になっているULP用の滑走路がある
白鷹エアロパークを探しつつ山形へ向かいます。

ちなみに白鷹スカイパークというパラグライダーのエリア
もあるようです。

福島で調べた山形のMETARではVRB2ノットです。しかし
山形RDOの通報では01/19どちらの進入でも横風かつ追
い風なので01を選びました。

ファイナルターンでは思ったより進まないし、ファイナル
に入るとどう考えても横風が10ノットはある偏流です。
110度から6ノットという通報でしたが、降りてから吹き流
しを見ると15-20ノットはある感じです。やっぱりな、と
思いつつ、着陸時フラップ20度、速度+5ノットで正解だ
ったようです。

実証された横風成分は17ノットなのでほぼその値に近い
状態です。ボナンザも横風で下せることがわかりました。

仙台は良い天気で風もそれほど強くなく、無事に機体を
引き渡せました。

少なくとも耐検には1か月かかります。もっと飛びたい・・・。

20150404DSCN1998JA3735SM
調布では小整備をしてから出発

20150404DSC_2876調布飛行場SM
調布飛行場の周りも桜が満開です

20150404DSC_2881川口荒川桜SM
東京都と埼玉の境、荒川河川敷。右側が川口市

20150404DSCN2000JA4076カブSM
龍ヶ崎にいたパイパーカブ。以前南紀白浜で見ました

20150404DSC_2890大子VORSM
もうすぐ廃止される大子VORTAC

20150404DSC_2895白鷹スカイパークSM
画面左端と小川の分岐点の間の河川敷が白鷹エアロパーク

20150404DSCN2005山形横風ウインドソックSM
山形空港の吹き流し。真横で尻尾がほぼ水平です

20150404DSCN2007JA3735山形SM
山形空港。山並みにはまだ雪が残っています

0150404DSC_2904東北大SM
仙台市と東北大学

20150404DSCN2012JA3735仙台SM
仙台では航大の前に駐機

20150404DSCN2014JA3495仙台SM
桶川から移動したエアロスバル(JA3495)がいました 

METAR RJAH 32200Z 06014KT 9999 FEW030 BKN040 BKN060
10/04 Q1015 RMK 2CU030 6SC040 7SC060 A3000
MAX AIND20KT=

METAR RJSF 040200Z 09006KT 010V180 9999 FEW040 BKN050
4/M02 Q1019 RMK 2SC040 7SC050 A3011= 
METAR RJSF 040400Z 09007KT 060V160 50KM FEW030CU
BLN050SC 14/M03 Q1019/A3011=

METAR RJSC 040200Z VRB03KT CAVOK 12/01 Q1020 RMK A3012= 
METAR RJSC 040400Z VRB02KT 40KM FEW/// 18/02 Q1018/A3008=

METAR RJSS 040200Z 09008KT 9999 FEW060 BKN/// 13/01
Q1021 RMK 1SC060 A3018= 
METAR RJSS 040400Z 15014KT 60KM FEW060SC 11/05 Q1022/A3019=
METAR RJSS 040600Z 13010KT 9999 FEW030 10/04 Q1023
RMK 1CU030 A3022=
 

日本航空機全集2015

鳳文書林の「日本航空機全集2015」に掲載されました。
昨年採用された
SF25Bと新たな写真5枚で合計6枚でした。 

20150403DSCN1979航空機全集SM
2016年も掲載されるよう引き続き空撮したいです
 

桜の枝

ちょっといい話。
近所の方に桜の枝をわけてもらいました。

20150402DSCN1982桜の枝SM
満開で外にあったら翌日にも散ってしまいそう
記事検索
月別アーカイブ
livedoor プロフィール
タグクラウド
QRコード
QRコード
  • ライブドアブログ